createdAt,value
2024-05-09T00:02:25.636Z,9.04
2024-05-09T00:07:46.894Z,9.32
2024-05-09T00:13:08.549Z,9.19
2024-05-09T00:18:30.553Z,9.14
2024-05-09T00:23:53.027Z,9.24
2024-05-09T00:29:15.263Z,9.29
2024-05-09T00:34:36.525Z,9.07
2024-05-09T00:39:57.885Z,8.74
2024-05-09T00:45:19.124Z,8.93
2024-05-09T00:50:41.662Z,9.04
2024-05-09T00:56:05.141Z,9.26
2024-05-09T01:01:27.733Z,9.33
2024-05-09T01:06:49.222Z,9.52
2024-05-09T01:12:10.707Z,9.73
2024-05-09T01:17:32.953Z,10.15
2024-05-09T01:22:54.812Z,10.76
2024-05-09T01:28:16.432Z,11.56
2024-05-09T01:33:38.660Z,11.87
2024-05-09T01:39:00.038Z,12.12
2024-05-09T01:44:21.378Z,12.29
2024-05-09T01:49:43.404Z,12.19
2024-05-09T01:55:07.151Z,12.45
2024-05-09T02:00:37.378Z,12.57
2024-05-09T02:06:02.416Z,12.37
2024-05-09T02:11:23.464Z,12.37
2024-05-09T02:16:44.779Z,12.61
2024-05-09T02:22:05.987Z,12.56
2024-05-09T02:27:27.215Z,12.39
2024-05-09T02:32:49.166Z,12.38
2024-05-09T02:38:10.813Z,12.63
2024-05-09T02:43:32.646Z,12.52
2024-05-09T02:48:53.825Z,12.43
2024-05-09T02:54:14.862Z,12.12
2024-05-09T02:59:36.197Z,11.86
2024-05-09T03:04:57.952Z,12.04
2024-05-09T03:10:25.403Z,12.07
2024-05-09T03:15:50.180Z,12.29
2024-05-09T03:21:11.575Z,12.08
2024-05-09T03:26:33.413Z,12.10
2024-05-09T03:31:54.816Z,12.51
2024-05-09T03:37:16.095Z,12.23
2024-05-09T03:42:41.634Z,12.05
2024-05-09T03:48:03.177Z,11.75
2024-05-09T03:53:25.574Z,12.15
2024-05-09T03:58:46.824Z,11.99
2024-05-09T04:04:09.517Z,11.23
2024-05-09T04:09:31.006Z,10.41
2024-05-09T04:14:52.373Z,10.79
2024-05-09T04:20:24.168Z,11.42
2024-05-09T04:25:54.684Z,11.71
2024-05-09T04:31:15.823Z,12.09
2024-05-09T04:36:36.976Z,12.06
2024-05-09T04:41:58.238Z,12.08
2024-05-09T04:47:21.015Z,12.24
2024-05-09T04:52:42.010Z,11.91
2024-05-09T04:58:03.998Z,11.87
2024-05-09T05:03:25.212Z,12.10
2024-05-09T05:08:47.244Z,12.22
2024-05-09T05:14:08.482Z,12.04
2024-05-09T05:19:30.630Z,11.91
2024-05-09T05:24:52.351Z,11.55
2024-05-09T05:30:21.101Z,11.60
2024-05-09T05:35:47.326Z,11.77
2024-05-09T05:41:08.817Z,11.66
2024-05-09T05:46:31.406Z,12.08
2024-05-09T05:51:52.757Z,12.27
2024-05-09T05:57:15.456Z,12.68
2024-05-09T06:02:36.919Z,12.87
2024-05-09T06:07:58.999Z,12.96
2024-05-09T06:13:20.604Z,13.04
2024-05-09T06:18:42.004Z,12.98
2024-05-09T06:24:06.157Z,13.05
2024-05-09T06:29:27.947Z,13.10
2024-05-09T06:34:49.199Z,13.19
2024-05-09T06:45:33.668Z,13.58
2024-05-09T06:50:55.301Z,13.80
2024-05-09T06:56:16.865Z,13.95
2024-05-09T07:01:38.395Z,14.05
2024-05-09T07:06:59.543Z,14.36
2024-05-09T07:12:20.926Z,14.42
2024-05-09T07:17:43.178Z,14.52
2024-05-09T07:23:05.239Z,14.71
2024-05-09T07:28:26.802Z,14.80
2024-05-09T07:33:48.096Z,14.80
2024-05-09T07:39:09.708Z,15.21
2024-05-09T07:44:31.271Z,15.39
2024-05-09T07:51:32.809Z,15.42
2024-05-09T07:55:34.024Z,15.67
2024-05-09T08:00:56.383Z,15.60
2024-05-09T08:06:17.650Z,15.42
2024-05-09T08:11:40.148Z,15.51
2024-05-09T08:17:02.464Z,15.52
2024-05-09T08:22:23.694Z,15.53
2024-05-09T08:27:45.414Z,16.00
2024-05-09T08:33:07.735Z,16.12
2024-05-09T08:38:29.704Z,15.88
2024-05-09T08:43:51.462Z,16.09
2024-05-09T08:49:13.679Z,15.86
2024-05-09T08:54:35.686Z,15.70
2024-05-09T09:00:00.445Z,15.95
2024-05-09T09:05:23.575Z,16.07
2024-05-09T09:10:46.541Z,16.14
2024-05-09T09:16:08.242Z,16.17
2024-05-09T09:21:30.314Z,16.11
2024-05-09T09:26:52.156Z,16.04
2024-05-09T09:32:13.667Z,16.10
2024-05-09T09:37:35.844Z,16.43
2024-05-09T09:42:57.760Z,16.49
2024-05-09T09:48:20.218Z,16.38
2024-05-09T09:53:42.702Z,16.32
2024-05-09T09:59:07.208Z,16.38
2024-05-09T10:04:28.360Z,16.47
2024-05-09T10:09:50.102Z,16.39
2024-05-09T10:15:11.579Z,16.48
2024-05-09T10:20:45.945Z,16.86
2024-05-09T10:26:38.716Z,16.70
2024-05-09T10:32:00.223Z,16.60
2024-05-09T10:37:22.230Z,16.73
2024-05-09T10:42:43.683Z,16.75
2024-05-09T10:48:06.073Z,17.30
2024-05-09T10:53:27.681Z,17.70
2024-05-09T10:58:52.057Z,17.61
2024-05-09T11:04:14.464Z,17.37
2024-05-09T11:09:36.529Z,17.33
2024-05-09T11:14:58.252Z,17.43
2024-05-09T11:20:26.726Z,17.21
2024-05-09T11:25:52.776Z,16.97
2024-05-09T11:31:14.509Z,16.69
2024-05-09T11:36:36.265Z,16.62
2024-05-09T11:41:57.825Z,16.55
2024-05-09T11:47:21.655Z,16.54
2024-05-09T11:52:43.021Z,16.57
2024-05-09T11:58:04.455Z,16.54
2024-05-09T12:03:25.858Z,16.43
2024-05-09T12:08:47.385Z,16.29
2024-05-09T12:14:08.974Z,16.37
2024-05-09T12:19:30.484Z,16.61
2024-05-09T12:24:52.240Z,16.68
2024-05-09T12:30:20.777Z,16.69
2024-05-09T12:35:51.104Z,16.51
2024-05-09T12:41:12.648Z,16.50
2024-05-09T12:46:34.007Z,16.36
2024-05-09T12:51:55.259Z,16.25
2024-05-09T12:57:16.733Z,16.28
2024-05-09T13:02:38.261Z,16.52
2024-05-09T13:08:00.697Z,16.58
2024-05-09T13:13:21.998Z,16.62
2024-05-09T13:18:44.423Z,16.67
2024-05-09T13:24:06.775Z,16.66
2024-05-09T13:29:28.258Z,16.69
2024-05-09T13:34:49.643Z,16.78
2024-05-09T13:40:14.230Z,16.78
2024-05-09T13:45:36.082Z,16.88
2024-05-09T13:50:57.872Z,16.89
2024-05-09T13:56:19.413Z,16.85
2024-05-09T14:01:41.441Z,16.71
2024-05-09T14:07:03.895Z,16.86
2024-05-09T14:12:24.984Z,16.79
2024-05-09T14:17:46.771Z,16.79
2024-05-09T14:23:08.380Z,16.71
2024-05-09T14:28:29.827Z,16.69
2024-05-09T14:33:51.382Z,16.72
2024-05-09T14:39:12.877Z,16.69
2024-05-09T14:44:34.044Z,16.67
2024-05-09T14:49:55.932Z,16.67
2024-05-09T14:55:17.026Z,16.81
2024-05-09T15:00:45.744Z,16.77
2024-05-09T15:06:11.354Z,16.73
2024-05-09T15:11:32.829Z,16.71
2024-05-09T15:16:53.823Z,16.74
2024-05-09T15:22:16.627Z,16.62
2024-05-09T15:27:37.899Z,16.73
2024-05-09T15:33:00.118Z,16.67
2024-05-09T15:38:21.751Z,16.69
2024-05-09T15:43:42.908Z,16.69
2024-05-09T15:49:04.458Z,16.69
2024-05-09T15:54:26.810Z,16.61
2024-05-09T15:59:48.280Z,16.80
2024-05-09T16:05:10.006Z,16.74
2024-05-09T16:10:33.249Z,16.83
2024-05-09T16:15:56.124Z,16.59
2024-05-09T16:21:17.434Z,16.60
2024-05-09T16:26:39.002Z,16.69
2024-05-09T16:32:00.492Z,16.57
2024-05-09T16:37:24.244Z,16.55
2024-05-09T16:42:46.669Z,16.52
2024-05-09T16:48:09.004Z,16.51
2024-05-09T16:53:30.305Z,16.40
2024-05-09T16:58:51.474Z,16.46
2024-05-09T17:04:12.944Z,16.39
2024-05-09T17:09:34.562Z,16.51
2024-05-09T17:14:56.672Z,16.48
2024-05-09T17:20:28.871Z,16.47
2024-05-09T17:25:54.716Z,16.25
2024-05-09T17:31:15.878Z,16.37
2024-05-09T17:36:37.181Z,16.31
2024-05-09T17:41:58.657Z,16.26
2024-05-09T17:47:20.458Z,16.11
2024-05-09T17:52:42.028Z,16.14
2024-05-09T17:58:04.752Z,16.14
2024-05-09T18:03:27.034Z,16.12
2024-05-09T18:08:48.427Z,16.01
2024-05-09T18:14:09.571Z,16.11
2024-05-09T18:19:31.198Z,16.01
2024-05-09T18:24:53.414Z,15.92
2024-05-09T18:30:24.124Z,15.89
2024-05-09T18:35:52.847Z,15.90
2024-05-09T18:41:14.469Z,15.87
2024-05-09T18:46:36.775Z,15.78
2024-05-09T18:51:58.310Z,15.68
2024-05-09T18:57:19.533Z,15.75
2024-05-09T19:02:41.035Z,15.71
2024-05-09T19:08:02.898Z,15.67
2024-05-09T19:13:27.452Z,15.65
2024-05-09T19:18:51.450Z,15.55
2024-05-09T19:24:13.380Z,15.52
2024-05-09T19:29:35.035Z,15.46
2024-05-09T19:34:56.281Z,15.43
2024-05-09T19:40:24.790Z,15.41
2024-05-09T19:45:52.172Z,15.26
2024-05-09T19:51:14.036Z,15.34
2024-05-09T19:56:35.357Z,15.39
2024-05-09T20:01:58.390Z,15.37
2024-05-09T20:07:20.022Z,15.28
2024-05-09T20:12:41.570Z,15.24
2024-05-09T20:18:03.023Z,15.28
2024-05-09T20:23:25.563Z,15.14
2024-05-09T20:28:46.914Z,15.14
2024-05-09T20:34:08.277Z,15.15
2024-05-09T20:39:29.463Z,15.11
2024-05-09T20:44:51.267Z,15.14
2024-05-09T20:50:23.038Z,15.11
2024-05-09T20:55:50.131Z,14.94
2024-05-09T21:01:11.421Z,14.89
2024-05-09T21:06:32.806Z,15.01
2024-05-09T21:11:53.977Z,14.86
2024-05-09T21:17:15.266Z,14.84
2024-05-09T21:22:38.014Z,14.91
2024-05-09T21:27:59.706Z,14.77
2024-05-09T21:33:21.305Z,14.84
2024-05-09T21:38:43.507Z,14.70
2024-05-09T21:44:04.868Z,14.77
2024-05-09T21:49:26.749Z,14.70
2024-05-09T21:54:47.975Z,14.77
2024-05-09T22:00:20.325Z,14.63
2024-05-09T22:05:46.377Z,14.65
2024-05-09T22:11:07.933Z,14.73
2024-05-09T22:16:29.271Z,14.71
2024-05-09T22:21:50.987Z,14.62
2024-05-09T22:27:12.326Z,14.55
2024-05-09T22:32:33.708Z,14.61
2024-05-09T22:37:55.516Z,14.62
2024-05-09T22:43:19.370Z,14.62
2024-05-09T22:48:40.938Z,14.51
2024-05-09T22:54:04.270Z,14.48
2024-05-09T22:59:25.651Z,14.47
2024-05-09T23:04:47.343Z,14.47
2024-05-09T23:10:13.429Z,14.45
2024-05-09T23:15:39.261Z,14.43
2024-05-09T23:21:01.374Z,14.44
2024-05-09T23:26:22.954Z,14.28
2024-05-09T23:31:44.243Z,14.45
2024-05-09T23:37:05.522Z,14.31
2024-05-09T23:42:26.798Z,14.33
2024-05-09T23:47:48.064Z,14.38
2024-05-09T23:53:10.367Z,14.35
2024-05-09T23:58:32.092Z,14.23
